Skip Navigation Links
NOAA logo - Click to go to the NOAA homepage
NOAA's National Weather Service
Alaska Aviation Weather Unit
  NWS logo - Click to go to the NWS homepage
Left Navbar Graphic     01 AKDT = 09 GMT

   
NOAA is celebrating 200 years of science, service, and stewardship. Visit the NOAA 200th celebration Web site to learn more.
USA.gov is the U.S. Government's official Web portal to all Federal, state and local government Web resources and services.
Facebook
NWS on Facebook

Important Change Regarding the AAWU Web Presence

 

Over the last several months, the AAWU has been working to navigate its webpages to a nationally supported server. Security, as well as other needs, have necessitated the change.  We have been given an extension for the site changeover while we diligently work at addressing feedback received. As of July 14, 2017, aawu.arh.noaa.gov will be discontinued. The new AAWU web address is weather.gov/aawu. It is now live and will run in-parallel with the old site until it is discontinued on July 14, 2017. Please continue to send any feedback or questions regarding the new webpages to nws.ar.aawu.webauthors@noaa.gov.  Thank you for your patience during this time of transition.
AAWU Home :: Display TAF Add Bookmark
TAF PAKT 190524Z 1906/2006  13007KT P6SM VCSH SCT015 OVC040
      TEMPO 1906/1910 6SM -SHRA BR BKN005 OVC035
     FM191000 14009KT 6SM -SHRA SCT010 BKN025 OVC040
     FM192100 14012KT 4SM -SHRA BR BKN015 OVC025
      AMD LTD TO CLD VIS AND WIND 1906/1915=

7434
FTAK31 PAJN 190524
TAFAPG
TAF
METAR PAKT 190353Z 14007KT 10SM SCT007 BKN021 OVC042 13/12 A3008=

METAR PAKT 190453Z 12007KT 10SM SCT007 BKN021 13/12 A3010=

PAKT 190515Z AUTO 14004KT 10SM BKN006 OVC028 13/12 A3010=

METAR PAKT 190553Z AUTO 16003KT 10SM BKN007 OVC012 13/12 A3010=

PAKT 190606Z AUTO 17003KT 10SM FEW007 BKN012 OVC028 12/12 A3011=

SPECI PAKT 190632Z AUTO 16004KT 10SM FEW007 BKN029 OVC060 12/11 A3012
     RMK AO2 T01220111 TSNO=

METAR PAKT 190653Z AUTO 15004KT 10SM FEW012 SCT029 BKN065 12/11
     A3011=

PAKT 190748Z AUTO 14005KT 10SM BKN012 BKN027 12/11 A3012=

PAKT 190749Z AUTO 14004KT 10SM BKN012 BKN027 12/11 A3012=

METAR PAKT 190853Z AUTO 19003KT 10SM OVC012 12/11 A3013=


NOAA's National Weather Service
Alaska Aviation Weather Unit
6930 Sand Lake Road
Anchorage, AK 99502-1845
Disclaimer
Credits
Glossary
Privacy Policy
About Us
Career Opportunities
Contact AAWU Internet Services Site last modified: April, 17th 2012